createdAt,value
2023-01-08T00:01:10.749Z,95809.72
2023-01-08T00:03:09.910Z,95803.78
2023-01-08T00:05:12.741Z,95807.88
2023-01-08T00:07:11.254Z,95801.91
2023-01-08T00:09:10.613Z,95808.94
2023-01-08T00:11:09.425Z,95805.56
2023-01-08T00:13:09.870Z,95808.16
2023-01-08T00:15:09.279Z,95812.31
2023-01-08T00:17:08.587Z,95811.53
2023-01-08T00:19:06.822Z,95802.31
2023-01-08T00:21:05.264Z,95806.63
2023-01-08T00:23:03.622Z,95801.50
2023-01-08T00:25:01.906Z,95801.41
2023-01-08T00:27:00.162Z,95802.50
2023-01-08T00:29:00.113Z,95792.25
2023-01-08T00:30:58.465Z,95800.81
2023-01-08T00:32:56.669Z,95799.00
2023-01-08T00:34:56.431Z,95793.22
2023-01-08T00:36:54.812Z,95804.16
2023-01-08T00:38:52.895Z,95805.25
2023-01-08T00:40:51.153Z,95805.28
2023-01-08T00:42:49.373Z,95806.88
2023-01-08T00:44:49.126Z,95803.63
2023-01-08T00:46:47.325Z,95804.72
2023-01-08T00:48:45.510Z,95809.06
2023-01-08T00:50:43.880Z,95817.56
2023-01-08T00:52:42.335Z,95800.50
2023-01-08T00:54:40.481Z,95797.13
2023-01-08T00:56:38.931Z,95808.22
2023-01-08T00:58:37.736Z,95802.97
2023-01-08T01:00:37.504Z,95810.00
2023-01-08T01:02:36.563Z,95801.47
2023-01-08T01:04:34.743Z,95805.91
2023-01-08T01:06:33.083Z,95808.31
2023-01-08T01:08:31.342Z,95809.91
2023-01-08T01:10:29.623Z,95809.91
2023-01-08T01:12:28.466Z,95809.84
2023-01-08T01:14:26.802Z,95804.06
2023-01-08T01:16:27.052Z,95807.50
2023-01-08T01:18:25.356Z,95803.25
2023-01-08T01:20:23.977Z,95810.34
2023-01-08T01:22:22.113Z,95803.78
2023-01-08T01:24:22.049Z,95802.28
2023-01-08T01:26:22.049Z,95799.91
2023-01-08T01:28:20.312Z,95800.06
2023-01-08T01:30:18.724Z,95794.53
2023-01-08T01:32:18.291Z,95793.53
2023-01-08T01:34:16.711Z,95795.31
2023-01-08T01:36:16.832Z,95804.06
2023-01-08T01:38:15.463Z,95798.16
2023-01-08T01:40:14.004Z,95795.41
2023-01-08T01:42:36.569Z,95798.88
2023-01-08T01:44:42.865Z,95789.41
2023-01-08T01:46:42.192Z,95790.38
2023-01-08T01:48:41.794Z,95791.25
2023-01-08T01:50:44.515Z,95789.31
2023-01-08T01:52:46.944Z,95795.41
2023-01-08T01:54:45.096Z,95776.56
2023-01-08T01:56:44.465Z,95785.47
2023-01-08T01:58:42.844Z,95780.31
2023-01-08T02:00:41.529Z,95781.91
2023-01-08T02:02:39.759Z,95781.16
2023-01-08T02:04:39.443Z,95781.16
2023-01-08T02:06:40.148Z,95778.66
2023-01-08T02:08:49.045Z,95784.66
2023-01-08T02:10:52.934Z,95773.78
2023-01-08T02:12:58.862Z,95773.84
2023-01-08T02:15:08.082Z,95783.34
2023-01-08T02:17:10.900Z,95775.66
2023-01-08T02:19:21.337Z,95777.34
2023-01-08T02:21:31.081Z,95773.03
2023-01-08T02:23:35.385Z,95771.44
2023-01-08T02:25:47.293Z,95767.81
2023-01-08T02:27:52.473Z,95770.41
2023-01-08T02:29:52.582Z,95769.69
2023-01-08T02:31:50.990Z,95767.91
2023-01-08T02:33:49.105Z,95766.28
2023-01-08T02:35:55.447Z,95762.94
2023-01-08T02:37:53.824Z,95763.00
2023-01-08T02:40:05.375Z,95763.19
2023-01-08T02:42:10.341Z,95756.19
2023-01-08T02:44:14.171Z,95757.97
2023-01-08T02:46:16.293Z,95752.53
2023-01-08T02:48:18.295Z,95762.25
2023-01-08T02:50:23.941Z,95748.63
2023-01-08T02:52:24.684Z,95750.53
2023-01-08T02:54:27.278Z,95747.13
2023-01-08T02:56:29.693Z,95749.72
2023-01-08T02:58:30.956Z,95759.19
2023-01-08T03:00:31.988Z,95759.19
2023-01-08T03:02:34.959Z,95753.22
2023-01-08T03:04:38.858Z,95755.72
2023-01-08T03:06:37.554Z,95759.19
2023-01-08T03:08:39.654Z,95765.13
2023-01-08T03:10:40.230Z,95762.72
2023-01-08T03:12:47.926Z,95757.78
2023-01-08T03:14:51.864Z,95756.06
2023-01-08T03:16:58.230Z,95766.47
2023-01-08T03:19:02.377Z,95761.06
2023-01-08T03:21:01.597Z,95759.38
2023-01-08T03:23:03.840Z,95757.88
2023-01-08T03:25:03.810Z,95765.91
2023-01-08T03:27:06.125Z,95762.63
2023-01-08T03:29:06.200Z,95766.88
2023-01-08T03:31:04.451Z,95764.47
2023-01-08T03:33:06.134Z,95759.31
2023-01-08T03:35:10.819Z,95761.13
2023-01-08T03:37:12.962Z,95761.13
2023-01-08T03:39:17.452Z,95765.31
2023-01-08T03:41:20.024Z,95762.03
2023-01-08T03:43:18.401Z,95767.22
2023-01-08T03:45:16.749Z,95766.34
2023-01-08T03:47:16.459Z,95761.31
2023-01-08T03:49:17.134Z,95750.88
2023-01-08T03:51:15.435Z,95754.97
2023-01-08T03:53:13.961Z,95755.91
2023-01-08T03:55:12.226Z,95759.34
2023-01-08T03:57:10.504Z,95756.88
2023-01-08T03:59:08.677Z,95755.97
2023-01-08T04:01:07.321Z,95750.22
2023-01-08T04:03:06.177Z,95761.47
2023-01-08T04:05:06.628Z,95754.63
2023-01-08T04:07:04.830Z,95761.47
2023-01-08T04:09:03.273Z,95762.97
2023-01-08T04:11:01.493Z,95763.78
2023-01-08T04:12:59.563Z,95765.69
2023-01-08T04:14:57.811Z,95773.44
2023-01-08T04:16:58.881Z,95764.09
2023-01-08T04:18:57.171Z,95755.38
2023-01-08T04:20:56.788Z,95769.19
2023-01-08T04:22:55.097Z,95757.03
2023-01-08T04:24:53.553Z,95756.06
2023-01-08T04:26:51.757Z,95771.38
2023-01-08T04:28:50.038Z,95761.03
2023-01-08T04:30:48.274Z,95766.13
2023-01-08T04:32:46.521Z,95756.81
2023-01-08T04:34:44.716Z,95761.19
2023-01-08T04:36:44.249Z,95763.56
2023-01-08T04:38:42.848Z,95759.56
2023-01-08T04:40:41.126Z,95764.94
2023-01-08T04:42:39.365Z,95764.97
2023-01-08T04:44:37.591Z,95765.19
2023-01-08T04:46:35.926Z,95763.53
2023-01-08T04:48:34.627Z,95765.25
2023-01-08T04:50:32.900Z,95771.19
2023-01-08T04:52:32.412Z,95768.63
2023-01-08T04:54:30.688Z,95766.13
2023-01-08T04:56:28.867Z,95774.69
2023-01-08T04:58:27.143Z,95769.59
2023-01-08T05:00:25.321Z,95773.91
2023-01-08T05:02:23.539Z,95777.31
2023-01-08T05:04:21.855Z,95781.50
2023-01-08T05:06:20.087Z,95783.34
2023-01-08T05:08:19.495Z,95779.97
2023-01-08T05:10:17.861Z,95783.47
2023-01-08T05:12:15.933Z,95786.22
2023-01-08T05:14:14.169Z,95785.38
2023-01-08T05:16:12.390Z,95788.19
2023-01-08T05:18:11.324Z,95781.38
2023-01-08T05:20:10.450Z,95781.31
2023-01-08T05:22:08.741Z,95776.19
2023-01-08T05:24:09.491Z,95781.53
2023-01-08T05:26:08.697Z,95780.81
2023-01-08T05:28:06.952Z,95784.06
2023-01-08T05:30:08.110Z,95779.97
2023-01-08T05:32:08.111Z,95768.78
2023-01-08T05:34:06.425Z,95769.56
2023-01-08T05:36:06.590Z,95778.31
2023-01-08T05:38:04.753Z,95780.09
2023-01-08T05:40:05.491Z,95786.16
2023-01-08T05:42:03.797Z,95786.22
2023-01-08T05:44:02.487Z,95788.72
2023-01-08T05:46:00.848Z,95783.50
2023-01-08T05:47:58.943Z,95787.75
2023-01-08T05:49:57.233Z,95786.97
2023-01-08T05:51:55.402Z,95779.22
2023-01-08T05:53:53.641Z,95784.75
2023-01-08T05:55:53.190Z,95784.41
2023-01-08T05:57:51.302Z,95774.38
2023-01-08T05:59:49.556Z,95785.69
2023-01-08T06:01:47.741Z,95784.88
2023-01-08T06:03:45.984Z,95787.53
2023-01-08T06:05:44.326Z,95791.91
2023-01-08T06:07:42.579Z,95790.84
2023-01-08T06:09:40.930Z,95793.44
2023-01-08T06:11:40.633Z,95789.19
2023-01-08T06:13:42.296Z,95801.69
2023-01-08T06:15:41.132Z,95788.91
2023-01-08T06:17:39.599Z,95795.63
2023-01-08T06:19:39.418Z,95786.16
2023-01-08T06:21:38.264Z,95792.50
2023-01-08T06:23:36.987Z,95798.66
2023-01-08T06:25:35.535Z,95792.75
2023-01-08T06:27:35.574Z,95792.91
2023-01-08T06:29:34.258Z,95794.63
2023-01-08T06:31:33.185Z,95803.69
2023-01-08T06:33:32.764Z,95801.44
2023-01-08T06:35:31.495Z,95800.03
2023-01-08T06:37:30.373Z,95807.72
2023-01-08T06:39:29.401Z,95813.00
2023-01-08T06:41:27.911Z,95808.94
2023-01-08T06:43:28.003Z,95815.94
2023-01-08T06:45:27.013Z,95813.72
2023-01-08T06:47:25.524Z,95810.28
2023-01-08T06:49:24.601Z,95816.91
2023-01-08T06:51:23.511Z,95816.34
2023-01-08T06:53:22.173Z,95815.63
2023-01-08T06:55:21.252Z,95812.38
2023-01-08T06:57:19.936Z,95814.22
2023-01-08T06:59:20.147Z,95812.69
2023-01-08T07:01:19.049Z,95820.44
2023-01-08T07:03:18.309Z,95820.50
2023-01-08T07:05:17.063Z,95817.84
2023-01-08T07:07:16.598Z,95822.81
2023-01-08T07:09:15.704Z,95830.28
2023-01-08T07:11:15.283Z,95824.84
2023-01-08T07:13:13.933Z,95827.25
2023-01-08T07:15:14.042Z,95824.56
2023-01-08T07:17:12.787Z,95826.44
2023-01-08T07:19:12.181Z,95836.81
2023-01-08T07:21:11.150Z,95826.53
2023-01-08T07:23:12.281Z,95839.28
2023-01-08T07:25:11.538Z,95829.56
2023-01-08T07:27:10.292Z,95829.25
2023-01-08T07:29:09.046Z,95835.09
2023-01-08T07:31:09.368Z,95839.44
2023-01-08T07:33:08.120Z,95830.06
2023-01-08T07:35:08.568Z,95834.16
2023-01-08T07:37:09.531Z,95830.50
2023-01-08T07:39:07.912Z,95837.31
2023-01-08T07:41:06.911Z,95839.78
2023-01-08T07:43:06.853Z,95840.66
2023-01-08T07:45:08.225Z,95840.75
2023-01-08T07:47:08.660Z,95839.34
2023-01-08T07:49:07.459Z,95835.13
2023-01-08T07:51:08.756Z,95841.25
2023-01-08T07:53:07.359Z,95848.19
2023-01-08T07:55:09.833Z,95842.66
2023-01-08T07:57:08.661Z,95838.38
2023-01-08T07:59:07.453Z,95834.97
2023-01-08T08:01:09.630Z,95841.81
2023-01-08T08:03:12.136Z,95844.97
2023-01-08T08:05:11.543Z,95847.44
2023-01-08T08:07:10.442Z,95844.63
2023-01-08T08:09:08.860Z,95843.50
2023-01-08T08:11:07.598Z,95843.28
2023-01-08T08:13:06.359Z,95844.03
2023-01-08T08:15:05.535Z,95840.31
2023-01-08T08:17:05.258Z,95836.06
2023-01-08T08:19:06.284Z,95841.06
2023-01-08T08:21:05.531Z,95828.78
2023-01-08T08:23:05.109Z,95833.22
2023-01-08T08:25:04.481Z,95839.47
2023-01-08T08:27:03.149Z,95842.09
2023-01-08T08:29:02.061Z,95842.16
2023-01-08T08:31:00.628Z,95841.06
2023-01-08T08:33:01.777Z,95840.94
2023-01-08T08:35:02.735Z,95851.00
2023-01-08T08:37:01.405Z,95843.09
2023-01-08T08:39:00.037Z,95846.88
2023-01-08T08:40:58.847Z,95835.69
2023-01-08T08:42:58.064Z,95833.84
2023-01-08T08:44:56.199Z,95833.03
2023-01-08T08:46:54.386Z,95836.41
2023-01-08T08:48:55.442Z,95832.44
2023-01-08T08:50:55.303Z,95838.53
2023-01-08T08:52:53.674Z,95832.50
2023-01-08T08:54:51.852Z,95831.69
2023-01-08T08:56:50.246Z,95819.56
2023-01-08T08:58:50.705Z,95823.22
2023-01-08T09:00:49.052Z,95821.94
2023-01-08T09:02:47.360Z,95809.28
2023-01-08T09:04:45.575Z,95802.63
2023-01-08T09:06:45.155Z,95807.72
2023-01-08T09:08:43.361Z,95810.22
2023-01-08T09:10:42.747Z,95798.00
2023-01-08T09:12:40.985Z,95804.78
2023-01-08T09:14:39.013Z,95793.31
2023-01-08T09:16:37.529Z,95793.13
2023-01-08T09:18:35.623Z,95795.69
2023-01-08T09:20:33.962Z,95794.50
2023-01-08T09:22:33.627Z,95793.38
2023-01-08T09:24:32.376Z,95783.19
2023-01-08T09:26:31.185Z,95786.56
2023-01-08T09:28:29.450Z,95777.75
2023-01-08T09:30:27.659Z,95773.66
2023-01-08T09:32:25.887Z,95772.97
2023-01-08T09:34:24.319Z,95771.41
2023-01-08T09:36:22.880Z,95770.63
2023-01-08T09:38:22.894Z,95757.19
2023-01-08T09:40:23.710Z,95763.34
2023-01-08T09:42:26.601Z,95754.19
2023-01-08T09:44:31.182Z,95754.00
2023-01-08T09:46:30.158Z,95759.13
2023-01-08T09:48:32.363Z,95750.53
2023-01-08T09:50:33.035Z,95745.06
2023-01-08T09:52:32.645Z,95737.41
2023-01-08T09:54:33.062Z,95732.63
2023-01-08T09:56:31.538Z,95732.88
2023-01-08T09:58:36.785Z,95727.34
2023-01-08T10:00:35.747Z,95721.66
2023-01-08T10:02:36.458Z,95720.25
2023-01-08T10:04:35.685Z,95720.06
2023-01-08T10:06:34.414Z,95714.34
2023-01-08T10:08:32.451Z,95710.72
2023-01-08T10:10:33.213Z,95711.63
2023-01-08T10:12:33.878Z,95713.00
2023-01-08T10:14:34.609Z,95699.75
2023-01-08T10:16:38.124Z,95699.44
2023-01-08T10:18:36.829Z,95706.06
2023-01-08T10:20:35.836Z,95704.72
2023-01-08T10:22:35.023Z,95697.66
2023-01-08T10:24:35.316Z,95698.19
2023-01-08T10:26:36.606Z,95695.47
2023-01-08T10:28:35.968Z,95692.78
2023-01-08T10:30:38.406Z,95682.31
2023-01-08T10:32:38.606Z,95681.63
2023-01-08T10:34:45.359Z,95679.59
2023-01-08T10:36:44.031Z,95682.91
2023-01-08T10:38:49.269Z,95676.03
2023-01-08T10:40:50.840Z,95664.75
2023-01-08T10:42:52.153Z,95661.94
2023-01-08T10:45:00.241Z,95666.44
2023-01-08T10:47:01.075Z,95664.25
2023-01-08T10:49:02.726Z,95655.09
2023-01-08T10:51:09.077Z,95651.88
2023-01-08T10:53:22.873Z,95652.91
2023-01-08T10:55:25.465Z,95657.09
2023-01-08T10:57:27.453Z,95644.78
2023-01-08T10:59:27.776Z,95640.09
2023-01-08T11:01:28.932Z,95641.75
2023-01-08T11:03:32.151Z,95641.72
2023-01-08T11:05:32.645Z,95635.75
2023-01-08T11:07:31.237Z,95641.31
2023-01-08T11:09:32.923Z,95631.22
2023-01-08T11:11:34.753Z,95632.28
2023-01-08T11:13:32.998Z,95629.78
2023-01-08T11:15:38.953Z,95629.69
2023-01-08T11:17:37.588Z,95623.69
2023-01-08T11:19:36.301Z,95618.72
2023-01-08T11:21:36.371Z,95625.63
2023-01-08T11:23:34.738Z,95622.47
2023-01-08T11:25:33.334Z,95627.25
2023-01-08T11:27:36.615Z,95620.00
2023-01-08T11:29:42.748Z,95627.06
2023-01-08T11:31:48.659Z,95626.34
2023-01-08T11:33:50.856Z,95626.03
2023-01-08T11:35:54.200Z,95627.13
2023-01-08T11:37:55.559Z,95629.53
2023-01-08T11:39:55.076Z,95632.56
2023-01-08T11:42:10.215Z,95620.44
2023-01-08T11:44:24.663Z,95621.63
2023-01-08T11:46:40.479Z,95610.75
2023-01-08T11:49:12.379Z,95614.78
2023-01-08T11:51:36.535Z,95605.13
2023-01-08T11:53:40.724Z,95604.38
2023-01-08T11:55:50.894Z,95597.75
2023-01-08T11:58:06.680Z,95599.19
2023-01-08T12:00:20.791Z,95605.06
2023-01-08T12:02:28.800Z,95599.09
2023-01-08T12:04:55.175Z,95593.06
2023-01-08T12:07:02.691Z,95588.94
2023-01-08T12:09:11.753Z,95582.94
2023-01-08T12:11:18.330Z,95582.84
2023-01-08T12:13:29.648Z,95586.81
2023-01-08T12:15:45.637Z,95579.34
2023-01-08T12:18:03.526Z,95578.56
2023-01-08T12:20:16.997Z,95574.09
2023-01-08T12:22:32.703Z,95571.31
2023-01-08T12:24:53.777Z,95576.09
2023-01-08T12:27:02.166Z,95571.31
2023-01-08T12:29:20.754Z,95574.09
2023-01-08T12:31:38.143Z,95573.56
2023-01-08T12:33:41.030Z,95569.78
2023-01-08T12:35:45.048Z,95565.75
2023-01-08T12:37:51.836Z,95566.38
2023-01-08T12:40:01.085Z,95560.09
2023-01-08T12:42:12.415Z,95557.34
2023-01-08T12:44:13.250Z,95552.84
2023-01-08T12:46:13.642Z,95553.78
2023-01-08T12:48:16.872Z,95556.25
2023-01-08T12:50:26.426Z,95556.59
2023-01-08T12:52:36.721Z,95556.13
2023-01-08T12:54:45.620Z,95551.00
2023-01-08T12:56:51.446Z,95551.56
2023-01-08T12:59:08.834Z,95546.06
2023-01-08T13:01:23.608Z,95551.88
2023-01-08T13:03:25.593Z,95546.97
2023-01-08T13:05:33.471Z,95541.00
2023-01-08T13:07:40.104Z,95539.06
2023-01-08T13:09:38.380Z,95534.88
2023-01-08T13:11:38.703Z,95541.06
2023-01-08T13:13:39.730Z,95534.25
2023-01-08T13:15:37.956Z,95537.47
2023-01-08T13:17:38.877Z,95542.31
2023-01-08T13:19:42.736Z,95533.91
2023-01-08T13:21:51.690Z,95532.75
2023-01-08T13:24:01.223Z,95528.56
2023-01-08T13:26:00.974Z,95537.91
2023-01-08T13:27:59.535Z,95533.00
2023-01-08T13:29:58.962Z,95531.28
2023-01-08T13:31:59.161Z,95529.84
2023-01-08T13:33:57.551Z,95533.63
2023-01-08T13:36:25.665Z,95528.59
2023-01-08T13:38:24.052Z,95531.94
2023-01-08T13:40:40.874Z,95531.50
2023-01-08T13:42:42.842Z,95531.06
2023-01-08T13:44:43.484Z,95524.97
2023-01-08T13:46:41.739Z,95525.09
2023-01-08T13:48:48.983Z,95529.16
2023-01-08T13:50:49.461Z,95527.50
2023-01-08T13:52:58.192Z,95532.22
2023-01-08T13:54:56.860Z,95527.31
2023-01-08T13:57:04.040Z,95528.38
2023-01-08T13:59:02.492Z,95538.81
2023-01-08T14:01:02.710Z,95528.94
2023-01-08T14:03:01.232Z,95524.53
2023-01-08T14:05:01.259Z,95522.66
2023-01-08T14:07:16.860Z,95521.34
2023-01-08T14:09:22.207Z,95520.53
2023-01-08T14:11:22.158Z,95533.34
2023-01-08T14:13:27.942Z,95525.28
2023-01-08T14:15:28.669Z,95527.16
2023-01-08T14:17:31.813Z,95519.66
2023-01-08T14:19:33.098Z,95521.03
2023-01-08T14:21:31.625Z,95513.78
2023-01-08T14:23:36.103Z,95522.38
2023-01-08T14:25:34.473Z,95515.44
2023-01-08T14:27:36.319Z,95514.31
2023-01-08T14:29:36.642Z,95505.53
2023-01-08T14:31:35.781Z,95510.69
2023-01-08T14:33:37.179Z,95514.03
2023-01-08T14:35:42.182Z,95515.47
2023-01-08T14:37:43.830Z,95505.97
2023-01-08T14:39:42.155Z,95506.09
2023-01-08T14:42:00.468Z,95498.97
2023-01-08T14:44:04.882Z,95503.34
2023-01-08T14:46:04.752Z,95492.59
2023-01-08T14:48:24.412Z,95495.41
2023-01-08T14:50:26.561Z,95500.41
2023-01-08T14:52:25.414Z,95504.28
2023-01-08T14:54:28.861Z,95503.94
2023-01-08T14:56:30.004Z,95491.56
2023-01-08T14:58:31.548Z,95500.34
2023-01-08T15:00:31.568Z,95504.47
2023-01-08T15:02:34.774Z,95509.16
2023-01-08T15:04:39.495Z,95499.06
2023-01-08T15:06:42.517Z,95495.31
2023-01-08T15:08:42.310Z,95494.41
2023-01-08T15:10:44.838Z,95495.94
2023-01-08T15:12:43.038Z,95496.81
2023-01-08T15:14:44.970Z,95499.03
2023-01-08T15:16:44.427Z,95492.41
2023-01-08T15:18:49.979Z,95496.16
2023-01-08T15:20:54.886Z,95502.19
2023-01-08T15:22:53.137Z,95501.44
2023-01-08T15:24:59.881Z,95497.19
2023-01-08T15:27:01.092Z,95504.78
2023-01-08T15:29:03.545Z,95500.03
2023-01-08T15:31:01.986Z,95496.22
2023-01-08T15:33:08.477Z,95498.56
2023-01-08T15:35:15.655Z,95504.06
2023-01-08T15:37:14.921Z,95500.03
2023-01-08T15:39:13.247Z,95495.47
2023-01-08T15:41:12.044Z,95497.81
2023-01-08T15:43:11.599Z,95501.91
2023-01-08T15:45:14.988Z,95500.25
2023-01-08T15:47:13.221Z,95500.50
2023-01-08T15:49:11.685Z,95498.66
2023-01-08T15:51:11.708Z,95503.34
2023-01-08T15:53:16.658Z,95492.50
2023-01-08T15:55:18.251Z,95499.31
2023-01-08T15:57:16.465Z,95495.22
2023-01-08T15:59:14.601Z,95493.31
2023-01-08T16:01:13.071Z,95499.81
2023-01-08T16:03:13.379Z,95507.63
2023-01-08T16:05:12.319Z,95504.31
2023-01-08T16:07:11.976Z,95501.22
2023-01-08T16:09:10.336Z,95506.13
2023-01-08T16:11:08.671Z,95505.72
2023-01-08T16:13:06.979Z,95504.50
2023-01-08T16:15:08.310Z,95513.66
2023-01-08T16:17:10.192Z,95503.63
2023-01-08T16:19:08.440Z,95505.06
2023-01-08T16:21:08.834Z,95503.56
2023-01-08T16:23:08.801Z,95500.53
2023-01-08T16:25:10.810Z,95507.00
2023-01-08T16:27:11.355Z,95500.66
2023-01-08T16:29:09.685Z,95507.84
2023-01-08T16:31:08.540Z,95504.50
2023-01-08T16:33:07.256Z,95514.16
2023-01-08T16:35:06.066Z,95511.72
2023-01-08T16:37:04.406Z,95507.44
2023-01-08T16:39:04.105Z,95507.72
2023-01-08T16:41:02.427Z,95503.56
2023-01-08T16:43:02.591Z,95505.59
2023-01-08T16:45:00.740Z,95511.94
2023-01-08T16:47:01.340Z,95505.00
2023-01-08T16:48:59.586Z,95508.09
2023-01-08T16:51:06.433Z,95506.44
2023-01-08T16:53:04.636Z,95513.56
2023-01-08T16:55:04.906Z,95513.19
2023-01-08T16:57:03.397Z,95519.91
2023-01-08T16:59:02.830Z,95510.16
2023-01-08T17:01:04.155Z,95509.34
2023-01-08T17:03:02.562Z,95522.25
2023-01-08T17:05:00.807Z,95518.66
2023-01-08T17:06:59.784Z,95521.41
2023-01-08T17:09:00.389Z,95515.63
2023-01-08T17:11:00.232Z,95524.31
2023-01-08T17:12:58.460Z,95522.91
2023-01-08T17:14:56.971Z,95519.94
2023-01-08T17:16:55.716Z,95520.34
2023-01-08T17:18:54.009Z,95520.34
2023-01-08T17:20:54.599Z,95533.50
2023-01-08T17:22:53.063Z,95531.25
2023-01-08T17:24:51.870Z,95532.09
2023-01-08T17:26:52.025Z,95536.06
2023-01-08T17:28:51.064Z,95528.38
2023-01-08T17:30:50.460Z,95540.72
2023-01-08T17:32:48.852Z,95542.19
2023-01-08T17:34:46.983Z,95537.44
2023-01-08T17:36:45.481Z,95539.50
2023-01-08T17:38:44.072Z,95545.88
2023-01-08T17:40:42.277Z,95544.34
2023-01-08T17:42:40.892Z,95549.75
2023-01-08T17:44:41.181Z,95549.31
2023-01-08T17:46:42.506Z,95551.31
2023-01-08T17:48:45.612Z,95544.34
2023-01-08T17:50:44.041Z,95555.81
2023-01-08T17:52:42.503Z,95559.53
2023-01-08T17:54:40.638Z,95562.81
2023-01-08T17:56:39.316Z,95558.69
2023-01-08T17:58:41.021Z,95559.09
2023-01-08T18:00:39.456Z,95560.38
2023-01-08T18:02:38.013Z,95565.00
2023-01-08T18:04:36.729Z,95564.53
2023-01-08T18:06:35.121Z,95561.25
2023-01-08T18:08:33.456Z,95569.88
2023-01-08T18:10:31.942Z,95565.00
2023-01-08T18:12:30.155Z,95568.34
2023-01-08T18:14:29.995Z,95574.59
2023-01-08T18:16:30.277Z,95582.66
2023-01-08T18:18:28.578Z,95574.41
2023-01-08T18:20:26.780Z,95581.50
2023-01-08T18:22:25.190Z,95582.34
2023-01-08T18:24:23.613Z,95576.25
2023-01-08T18:26:23.359Z,95578.50
2023-01-08T18:28:21.652Z,95578.34
2023-01-08T18:30:21.442Z,95575.94
2023-01-08T18:32:25.538Z,95578.84
2023-01-08T18:34:23.933Z,95578.34
2023-01-08T18:36:22.251Z,95584.91
2023-01-08T18:38:20.432Z,95579.03
2023-01-08T18:40:18.792Z,95589.66
2023-01-08T18:42:28.000Z,95581.63
2023-01-08T18:44:26.584Z,95590.75
2023-01-08T18:46:26.654Z,95587.22
2023-01-08T18:48:25.062Z,95585.22
2023-01-08T18:50:23.460Z,95590.25
2023-01-08T18:52:21.902Z,95588.78
2023-01-08T18:54:20.244Z,95598.03
2023-01-08T18:56:25.019Z,95589.47
2023-01-08T18:58:23.273Z,95583.03
2023-01-08T19:00:23.318Z,95585.72
2023-01-08T19:02:27.014Z,95591.59
2023-01-08T19:04:25.890Z,95586.31
2023-01-08T19:06:24.673Z,95590.63
2023-01-08T19:08:22.837Z,95598.94
2023-01-08T19:10:21.977Z,95593.91
2023-01-08T19:12:20.566Z,95599.00
2023-01-08T19:14:18.844Z,95600.94
2023-01-08T19:16:18.690Z,95602.69
2023-01-08T19:18:18.829Z,95611.47
2023-01-08T19:20:17.628Z,95615.84
2023-01-08T19:22:15.976Z,95615.84
2023-01-08T19:24:14.389Z,95619.13
2023-01-08T19:26:14.483Z,95612.25
2023-01-08T19:28:12.887Z,95607.13
2023-01-08T19:30:14.464Z,95618.53
2023-01-08T19:32:12.644Z,95617.63
2023-01-08T19:34:13.046Z,95620.13
2023-01-08T19:36:12.870Z,95609.91
2023-01-08T19:38:11.284Z,95618.69
2023-01-08T19:40:10.922Z,95611.44
2023-01-08T19:42:34.525Z,95616.34
2023-01-08T19:44:36.680Z,95616.63
2023-01-08T19:46:37.292Z,95614.88
2023-01-08T19:48:37.535Z,95616.28
2023-01-08T19:50:39.152Z,95623.88
2023-01-08T19:52:37.505Z,95628.84
2023-01-08T19:54:35.805Z,95631.38
2023-01-08T19:56:34.617Z,95632.00
2023-01-08T19:58:33.030Z,95632.06
2023-01-08T20:00:37.382Z,95628.69
2023-01-08T20:02:36.066Z,95626.38
2023-01-08T20:04:35.171Z,95625.97
2023-01-08T20:06:35.323Z,95629.03
2023-01-08T20:08:33.670Z,95627.50
2023-01-08T20:10:31.794Z,95622.69
2023-01-08T20:12:30.048Z,95625.00
2023-01-08T20:14:28.447Z,95623.25
2023-01-08T20:16:27.060Z,95619.75
2023-01-08T20:18:25.504Z,95625.06
2023-01-08T20:20:23.885Z,95627.66
2023-01-08T20:22:23.568Z,95616.78
2023-01-08T20:24:22.043Z,95624.44
2023-01-08T20:26:20.520Z,95624.81
2023-01-08T20:28:18.832Z,95621.63
2023-01-08T20:30:17.333Z,95621.78
2023-01-08T20:32:15.563Z,95633.31
2023-01-08T20:34:17.122Z,95622.25
2023-01-08T20:36:16.880Z,95629.34
2023-01-08T20:38:16.517Z,95624.16
2023-01-08T20:40:18.085Z,95627.88
2023-01-08T20:42:17.765Z,95626.97
2023-01-08T20:44:28.603Z,95627.00
2023-01-08T20:46:29.527Z,95637.56
2023-01-08T20:48:30.056Z,95629.91
2023-01-08T20:50:30.361Z,95631.66
2023-01-08T20:52:30.485Z,95646.50
2023-01-08T20:54:31.334Z,95639.16
2023-01-08T20:56:29.763Z,95641.97
2023-01-08T20:58:28.004Z,95652.09
2023-01-08T21:00:26.545Z,95642.59
2023-01-08T21:02:24.728Z,95642.59
2023-01-08T21:04:23.035Z,95649.41
2023-01-08T21:06:23.489Z,95657.81
2023-01-08T21:08:21.629Z,95656.97
2023-01-08T21:10:21.733Z,95646.69
2023-01-08T21:12:20.063Z,95656.97
2023-01-08T21:14:18.165Z,95655.28
2023-01-08T21:16:22.716Z,95654.69
2023-01-08T21:18:23.316Z,95651.25
2023-01-08T21:20:21.731Z,95654.94
2023-01-08T21:22:19.986Z,95646.53
2023-01-08T21:24:18.337Z,95649.22
2023-01-08T21:26:19.581Z,95648.81
2023-01-08T21:28:17.790Z,95649.03
2023-01-08T21:30:16.146Z,95647.91
2023-01-08T21:32:14.528Z,95647.97
2023-01-08T21:34:12.756Z,95642.91
2023-01-08T21:36:13.523Z,95648.31
2023-01-08T21:38:11.806Z,95642.56
2023-01-08T21:40:11.858Z,95649.66
2023-01-08T21:42:26.301Z,95647.38
2023-01-08T21:44:43.695Z,95653.59
2023-01-08T21:46:41.831Z,95651.19
2023-01-08T21:48:40.337Z,95654.06
2023-01-08T21:50:38.679Z,95649.75
2023-01-08T21:52:54.239Z,95649.69
2023-01-08T21:54:52.815Z,95646.44
2023-01-08T21:56:51.029Z,95654.44
2023-01-08T21:58:50.672Z,95640.63
2023-01-08T22:00:49.003Z,95647.22
2023-01-08T22:02:47.306Z,95648.06
2023-01-08T22:04:46.067Z,95653.25
2023-01-08T22:06:44.505Z,95643.72
2023-01-08T22:08:42.775Z,95650.34
2023-01-08T22:10:41.518Z,95641.69
2023-01-08T22:12:40.324Z,95642.78
2023-01-08T22:14:39.959Z,95646.97
2023-01-08T22:16:38.398Z,95643.84
2023-01-08T22:18:37.356Z,95638.91
2023-01-08T22:20:35.429Z,95641.63
2023-01-08T22:22:33.797Z,95631.94
2023-01-08T22:24:32.178Z,95631.19
2023-01-08T22:26:30.230Z,95627.13
2023-01-08T22:28:28.562Z,95629.75
2023-01-08T22:30:28.349Z,95625.59
2023-01-08T22:32:26.690Z,95621.94
2023-01-08T22:34:24.915Z,95622.81
2023-01-08T22:36:23.352Z,95628.91
2023-01-08T22:38:21.466Z,95631.41
2023-01-08T22:40:19.925Z,95626.41
2023-01-08T22:42:18.623Z,95625.78
2023-01-08T22:44:17.049Z,95636.22
2023-01-08T22:46:17.597Z,95622.47
2023-01-08T22:48:15.899Z,95611.88
2023-01-08T22:50:14.126Z,95624.13
2023-01-08T22:52:12.916Z,95622.50
2023-01-08T22:54:12.901Z,95622.47
2023-01-08T22:56:12.476Z,95614.09
2023-01-08T22:58:10.952Z,95622.03
2023-01-08T23:00:13.054Z,95623.06
2023-01-08T23:02:12.647Z,95616.94
2023-01-08T23:04:11.483Z,95615.38
2023-01-08T23:06:11.613Z,95607.56
2023-01-08T23:08:10.051Z,95608.50
2023-01-08T23:10:09.556Z,95607.00
2023-01-08T23:12:08.188Z,95608.00
2023-01-08T23:14:06.484Z,95598.41
2023-01-08T23:16:06.025Z,95595.97
2023-01-08T23:18:05.677Z,95605.66
2023-01-08T23:20:05.333Z,95603.69
2023-01-08T23:22:03.542Z,95597.56
2023-01-08T23:24:01.829Z,95602.00
2023-01-08T23:26:05.767Z,95597.81
2023-01-08T23:28:04.211Z,95598.41
2023-01-08T23:30:03.263Z,95599.97
2023-01-08T23:32:01.548Z,95593.00
2023-01-08T23:34:01.296Z,95597.41
2023-01-08T23:35:59.434Z,95599.34
2023-01-08T23:37:57.721Z,95601.28
2023-01-08T23:39:56.052Z,95595.38